Time;durP1;ratioP1;P1;durP2;ratioP2;P2;SDS_P1;SDS_P2;PMS_P1;PMS_P2;Temp;Humidity;BMP_temperature;BMP_pressure;BME280_temperature;BME280_humidity;BME280_pressure;Samples;Min_cycle;Max_cycle;Signal;HPM_P1;HPM_P2
2022/09/04 00:02:36;;;;;;;5.93;2.55;;;;;;;15.97;100.00;96283.59;5037567;28;20232;-70
2022/09/04 00:05:10;;;;;;;4.07;2.65;;;;;;;16.06;100.00;96283.19;5038183;28;20215;-71
2022/09/04 00:07:46;;;;;;;4.50;2.10;;;;;;;15.93;100.00;96280.53;5038183;28;20220;-69
2022/09/04 00:10:21;;;;;;;3.78;2.10;;;;;;;15.91;100.00;96285.25;5038254;28;20204;-70
2022/09/04 00:12:53;;;;;;;4.50;2.47;;;;;;;15.84;100.00;96287.09;5037269;28;20224;-71
2022/09/04 00:15:23;;;;;;;3.47;2.20;;;;;;;15.87;100.00;96281.41;5038250;28;20206;-69
2022/09/04 00:17:56;;;;;;;2.35;1.80;;;;;;;15.94;100.00;96289.34;5037616;28;20213;-70
2022/09/04 00:20:36;;;;;;;5.10;2.63;;;;;;;16.00;100.00;96286.66;5037574;28;20212;-70
2022/09/04 00:23:10;;;;;;;3.05;1.60;;;;;;;15.84;100.00;96286.31;5036953;28;20211;-71
2022/09/04 00:25:48;;;;;;;3.45;1.92;;;;;;;15.84;100.00;96286.31;5038109;28;20236;-69
2022/09/04 00:28:26;;;;;;;3.97;1.80;;;;;;;15.71;100.00;96296.16;5038003;28;20201;-71
2022/09/04 00:31:00;;;;;;;2.92;1.70;;;;;;;15.74;100.00;96290.41;5037714;28;20949;-71
2022/09/04 00:33:37;;;;;;;4.38;1.88;;;;;;;15.80;100.00;96300.22;5037329;28;20201;-69
2022/09/04 00:36:05;;;;;;;3.38;1.60;;;;;;;15.66;100.00;96298.59;5037887;28;20213;-71
2022/09/04 00:38:38;;;;;;;2.72;1.55;;;;;;;15.63;100.00;96293.69;5037646;28;20700;-72
2022/09/04 00:41:15;;;;;;;2.40;1.88;;;;;;;15.63;100.00;96293.69;5037046;28;20759;-69
2022/09/04 00:44:03;;;;;;;2.42;1.75;;;;;;;15.71;100.00;96296.16;5037760;28;20200;-70
2022/09/04 00:46:54;;;;;;;4.18;2.58;;;;;;;15.69;100.00;96298.19;5037282;28;20244;-71
2022/09/04 00:49:36;;;;;;;6.60;3.70;;;;;;;15.69;100.00;96295.53;5009132;28;20213;-71
2022/09/04 00:52:16;;;;;;;5.95;3.42;;;;;;;15.67;100.00;96294.91;5036995;28;20205;-71
2022/09/04 00:55:07;;;;;;;5.25;2.67;;;;;;;15.78;100.00;96294.28;5036733;28;20208;-71
2022/09/04 00:57:59;;;;;;;6.22;3.40;;;;;;;15.83;100.00;96294.47;5037427;28;20220;-71
2022/09/04 01:00:27;;;;;;;5.05;2.92;;;;;;;15.69;100.00;96306.16;5036624;28;20201;-70
2022/09/04 01:03:18;;;;;;;6.03;3.38;;;;;;;15.89;100.00;96299.78;5036226;28;20235;-70
2022/09/04 01:06:03;;;;;;;6.55;3.28;;;;;;;15.91;100.00;96306.53;5037179;28;20885;-71
2022/09/04 01:08:46;;;;;;;6.15;3.25;;;;;;;15.87;100.00;96310.63;5036769;28;20217;-71
2022/09/04 01:11:17;;;;;;;6.85;3.03;;;;;;;15.84;100.00;96312.06;5036412;28;20244;-70
2022/09/04 01:14:01;;;;;;;5.43;3.17;;;;;;;15.86;100.00;96313.50;5036258;28;20201;-70
2022/09/04 01:16:34;;;;;;;5.97;3.22;;;;;;;15.84;100.00;96312.06;5036305;28;20221;-72
2022/09/04 01:19:09;;;;;;;5.07;2.83;;;;;;;15.89;100.00;96315.72;5036395;28;20208;-71
2022/09/04 01:22:04;;;;;;;4.82;2.80;;;;;;;15.92;100.00;96310.81;5036117;28;20702;-71
2022/09/04 01:24:58;;;;;;;6.85;3.50;;;;;;;15.91;100.00;96311.00;5035794;28;20201;-71
2022/09/04 01:27:29;;;;;;;4.53;3.00;;;;;;;15.89;100.00;96316.53;5037051;28;20589;-70
2022/09/04 01:30:03;;;;;;;6.28;3.40;;;;;;;15.84;100.00;96316.34;5037021;28;20631;-71
2022/09/04 01:32:39;;;;;;;8.02;3.30;;;;;;;15.80;100.00;96321.47;5035703;28;20197;-70
2022/09/04 01:35:15;;;;;;;5.50;3.20;;;;;;;15.78;100.00;96316.34;5036897;28;20201;-69
2022/09/04 01:37:51;;;;;;;5.30;3.20;;;;;;;15.79;100.00;96314.53;5035686;28;20207;-71
2022/09/04 01:40:30;;;;;;;4.40;2.92;;;;;;;15.72;100.00;96319.84;5035616;28;20216;-71
2022/09/04 01:43:04;;;;;;;5.18;3.03;;;;;;;15.75;100.00;96323.94;5035493;28;20476;-70
2022/09/04 01:45:51;;;;;;;7.72;3.67;;;;;;;15.74;100.00;96322.28;5036636;28;20225;-72
2022/09/04 01:48:22;;;;;;;6.32;2.65;;;;;;;15.73;100.00;96320.66;5020064;28;20204;-71
2022/09/04 01:50:53;;;;;;;5.13;2.95;;;;;;;15.66;100.00;96331.28;5035978;28;20212;-71
2022/09/04 01:53:25;;;;;;;8.23;3.72;;;;;;;15.67;100.00;96326.78;5036394;28;20239;-71
2022/09/04 01:56:02;;;;;;;6.43;3.17;;;;;;;15.57;100.00;96331.72;5036523;28;20220;-71
2022/09/04 01:58:40;;;;;;;5.28;3.08;;;;;;;15.44;100.00;96334.34;5036671;28;20227;-71
2022/09/04 02:01:17;;;;;;;7.13;3.45;;;;;;;15.47;100.00;96331.31;5035244;28;20209;-71
2022/09/04 02:03:49;;;;;;;6.20;2.85;;;;;;;15.48;100.00;96332.94;5035502;28;20205;-71
2022/09/04 02:06:26;;;;;;;6.57;3.20;;;;;;;15.49;100.00;96340.72;5035394;28;20229;-71
2022/09/04 02:09:15;;;;;;;10.60;3.75;;;;;;;15.41;100.00;96332.13;5035786;28;20992;-70
2022/09/04 02:11:50;;;;;;;5.45;3.50;;;;;;;15.42;100.00;96337.22;5035509;28;21348;-71
2022/09/04 02:14:35;;;;;;;6.30;3.70;;;;;;;15.43;100.00;96338.06;5035715;28;20645;-71
2022/09/04 02:17:10;;;;;;;6.45;3.53;;;;;;;15.43;100.00;96343.38;5035368;28;20731;-71
2022/09/04 02:19:45;;;;;;;7.28;3.22;;;;;;;15.32;100.00;96342.13;5036257;28;20192;-70
2022/09/04 02:22:23;;;;;;;5.20;3.13;;;;;;;15.33;100.00;96351.72;5034891;28;20201;-70
2022/09/04 02:24:58;;;;;;;6.00;3.17;;;;;;;15.15;100.00;96347.16;5036321;28;20197;-70
2022/09/04 02:27:31;;;;;;;7.22;3.03;;;;;;;15.24;100.00;96346.81;5035302;28;20228;-70
2022/09/04 02:30:03;;;;;;;8.32;3.13;;;;;;;15.24;100.00;96344.16;5036172;28;20201;-70
2022/09/04 02:32:37;;;;;;;4.53;3.08;;;;;;;15.21;100.00;96355.19;5032341;28;20201;-71
2022/09/04 02:35:10;;;;;;;6.65;3.10;;;;;;;15.09;100.00;96348.00;5036391;28;20204;-70
2022/09/04 02:37:50;;;;;;;4.53;2.70;;;;;;;15.21;100.00;96347.22;5035828;28;20285;-71
2022/09/04 02:40:22;;;;;;;4.35;2.80;;;;;;;15.10;100.00;96346.97;5035933;28;20204;-71
2022/09/04 02:43:04;;;;;;;4.07;2.97;;;;;;;15.01;100.00;96351.66;5035555;28;20212;-71
2022/09/04 02:45:38;;;;;;;4.60;2.65;;;;;;;15.03;100.00;96349.63;5035962;28;20201;-70
2022/09/04 02:48:12;;;;;;;4.75;2.97;;;;;;;15.01;100.00;96348.19;5035801;28;20632;-71
2022/09/04 02:50:52;;;;;;;3.95;2.70;;;;;;;14.89;100.00;96353.25;5036520;28;20212;-70
2022/09/04 02:53:28;;;;;;;3.72;2.45;;;;;;;14.86;100.00;96358.94;5035181;28;20212;-71
2022/09/04 02:56:16;;;;;;;5.07;2.60;;;;;;;14.95;100.00;96356.94;5035963;28;20307;-70
2022/09/04 02:59:02;;;;;;;7.60;1.95;;;;;;;14.91;100.00;96361.03;5035689;28;20721;-71
2022/09/04 03:01:35;;;;;;;4.35;2.38;;;;;;;14.78;100.00;96351.19;5036121;28;20593;-70
2022/09/04 03:04:09;;;;;;;4.07;2.35;;;;;;;14.77;100.00;96348.72;5035543;28;20209;-71
2022/09/04 03:06:50;;;;;;;5.65;2.97;;;;;;;14.81;100.00;96347.31;5036633;28;20629;-71
2022/09/04 03:09:24;;;;;;;4.22;2.65;;;;;;;14.89;100.00;96358.56;5035393;28;20201;-69
2022/09/04 03:11:55;;;;;;;4.60;2.47;;;;;;;14.79;100.00;96357.28;5035376;28;20205;-71
2022/09/04 03:14:33;;;;;;;4.45;2.35;;;;;;;14.67;100.00;96362.34;5035622;28;20266;-71
2022/09/04 03:17:08;;;;;;;4.10;2.65;;;;;;;14.71;100.00;96353.00;5035612;28;20233;-70
2022/09/04 03:19:41;;;;;;;3.47;2.38;;;;;;;14.68;100.00;96350.72;5039653;28;20391;-71
2022/09/04 03:22:16;;;;;;;4.63;2.65;;;;;;;14.75;100.00;96358.72;5039049;28;20263;-69
2022/09/04 03:24:59;;;;;;;3.97;2.60;;;;;;;14.82;100.00;96364.88;5039649;28;20212;-71
2022/09/04 03:27:27;;;;;;;4.65;2.72;;;;;;;14.66;100.00;96362.56;5038880;28;20225;-70
2022/09/04 03:30:00;;;;;;;4.65;2.92;;;;;;;14.70;100.00;96366.44;5039330;28;20213;-70
2022/09/04 03:32:34;;;;;;;5.60;3.00;;;;;;;14.75;100.00;96367.50;5038568;28;20205;-71
2022/09/04 03:35:09;;;;;;;4.13;2.60;;;;;;;14.84;100.00;96365.47;5036984;28;20216;-69
2022/09/04 03:37:52;;;;;;;6.55;2.85;;;;;;;14.87;100.00;96371.22;5039271;28;20224;-71
2022/09/04 03:40:31;;;;;;;7.38;3.17;;;;;;;14.85;100.00;96370.56;5038966;28;20209;-71
2022/09/04 03:43:25;;;;;;;5.47;2.75;;;;;;;14.90;100.00;96370.78;5038658;28;20209;-70
2022/09/04 03:45:59;;;;;;;5.25;3.40;;;;;;;14.83;100.00;96358.56;5039110;28;21106;-69
2022/09/04 03:48:37;;;;;;;4.38;2.83;;;;;;;14.88;100.00;96369.34;5037729;28;20296;-70
2022/09/04 03:51:12;;;;;;;7.18;3.30;;;;;;;14.95;100.00;96368.34;5038966;28;20201;-72
2022/09/04 03:53:43;;;;;;;4.95;2.75;;;;;;;14.92;100.00;96374.09;5038380;28;20201;-71
2022/09/04 03:56:23;;;;;;;6.57;2.92;;;;;;;14.85;100.00;96373.22;5038626;28;20253;-71
2022/09/04 03:59:01;;;;;;;4.93;2.70;;;;;;;14.83;100.00;96369.97;5038408;28;20580;-69
2022/09/04 04:01:40;;;;;;;5.68;2.63;;;;;;;14.85;100.00;96372.41;5038878;28;20742;-71
2022/09/04 04:04:33;;;;;;;4.25;2.75;;;;;;;14.93;100.00;96375.72;5037343;28;20205;-69
2022/09/04 04:07:12;;;;;;;4.32;2.65;;;;;;;14.87;100.00;96375.72;5038593;28;20230;-71
2022/09/04 04:09:58;;;;;;;3.85;2.47;;;;;;;14.87;100.00;96381.00;5038076;28;20209;-70
2022/09/04 04:12:41;;;;;;;5.63;2.75;;;;;;;14.85;100.00;96389.16;5037911;28;20197;-70
2022/09/04 04:15:20;;;;;;;6.85;2.90;;;;;;;14.79;100.00;96384.66;5038751;28;20223;-71
2022/09/04 04:18:16;;;;;;;6.00;2.85;;;;;;;14.75;100.00;96388.72;5038452;28;20201;-70
2022/09/04 04:20:53;;;;;;;3.75;2.53;;;;;;;14.68;100.00;96392.38;5037971;28;20200;-71
2022/09/04 04:23:41;;;;;;;5.05;3.10;;;;;;;14.76;100.00;96390.34;5038408;28;20548;-71
2022/09/04 04:26:10;;;;;;;4.63;2.92;;;;;;;14.72;100.00;96399.72;5038387;28;20221;-69
2022/09/04 04:28:58;;;;;;;6.10;2.95;;;;;;;14.75;100.00;96396.69;5037396;28;20629;-71
2022/09/04 04:31:38;;;;;;;4.18;2.72;;;;;;;14.72;100.00;96405.03;5035751;28;20841;-70
2022/09/04 04:34:11;;;;;;;6.22;2.70;;;;;;;14.67;100.00;96407.44;5037546;28;20200;-71
2022/09/04 04:36:46;;;;;;;5.43;2.95;;;;;;;14.68;100.00;96417.03;5037923;28;20224;-70
2022/09/04 04:39:23;;;;;;;5.65;2.67;;;;;;;14.67;100.00;96418.06;5038251;28;20684;-72
2022/09/04 04:42:05;;;;;;;5.57;2.60;;;;;;;14.72;100.00;96420.94;5037128;28;20208;-71
2022/09/04 04:47:55;;;;;;;5.85;2.60;;;;;;;14.69;100.00;96431.94;5037921;28;20231;-71
2022/09/04 04:50:28;;;;;;;3.58;2.70;;;;;;;14.74;100.00;96434.84;4993385;28;20205;-71
2022/09/04 04:53:03;;;;;;;3.78;2.60;;;;;;;14.81;100.00;96430.38;5037243;28;20204;-71
2022/09/04 04:55:39;;;;;;;3.70;2.50;;;;;;;14.71;100.00;96445.00;5037894;28;20201;-71
2022/09/04 04:58:31;;;;;;;3.30;2.40;;;;;;;14.82;100.00;96445.28;5038003;28;20205;-72
2022/09/04 05:01:10;;;;;;;3.75;2.60;;;;;;;14.83;100.00;96449.56;5037252;28;20201;-68
2022/09/04 05:03:50;;;;;;;4.75;2.72;;;;;;;14.79;100.00;96445.69;5036976;28;20327;-71
2022/09/04 05:06:24;;;;;;;3.90;2.60;;;;;;;14.72;100.00;96444.81;5037139;28;20228;-69
2022/09/04 05:08:57;;;;;;;5.97;2.85;;;;;;;14.83;100.00;96449.56;5036890;28;20319;-71
2022/09/04 05:11:34;;;;;;;4.07;2.53;;;;;;;14.83;100.00;96454.06;5037991;28;20590;-71
2022/09/04 05:14:13;;;;;;;5.00;3.03;;;;;;;14.85;100.00;96458.13;5036560;28;20197;-71
2022/09/04 05:16:51;;;;;;;4.97;2.65;;;;;;;14.80;100.00;96459.75;5036765;28;20213;-71
2022/09/04 05:19:26;;;;;;;3.75;2.25;;;;;;;14.79;100.00;96466.91;5037024;28;20665;-70
2022/09/04 05:21:59;;;;;;;5.95;2.78;;;;;;;14.87;100.00;96460.59;5037367;28;20200;-70
2022/09/04 05:24:35;;;;;;;8.50;2.80;;;;;;;14.97;100.00;96455.72;5036245;28;21111;-71
2022/09/04 05:27:10;;;;;;;4.25;2.50;;;;;;;15.03;100.00;96466.41;5036698;28;20227;-71
2022/09/04 05:29:46;;;;;;;7.97;2.65;;;;;;;15.03;100.00;96471.72;5038079;28;20212;-71
2022/09/04 05:32:20;;;;;;;5.18;2.38;;;;;;;15.03;100.00;96471.72;5036366;28;20209;-71
2022/09/04 05:35:02;;;;;;;4.57;2.50;;;;;;;15.24;100.00;96473.44;5036423;28;20205;-71
2022/09/04 05:37:36;;;;;;;4.00;2.50;;;;;;;15.25;100.00;96476.69;5036851;28;20225;-71
2022/09/04 05:40:11;;;;;;;6.90;3.00;;;;;;;15.28;100.00;96491.41;5035994;28;20676;-70
2022/09/04 05:43:02;;;;;;;6.15;2.72;;;;;;;15.24;100.00;96500.00;5034915;28;20207;-71
2022/09/04 05:45:40;;;;;;;5.00;2.80;;;;;;;15.25;100.00;96495.28;5036324;28;20205;-70
2022/09/04 05:48:19;;;;;;;4.63;2.83;;;;;;;15.34;100.00;96490.63;5036695;28;20228;-70
2022/09/04 05:51:06;;;;;;;5.00;3.00;;;;;;;15.39;100.00;96490.84;5036337;28;20200;-70
2022/09/04 05:53:54;;;;;;;4.13;2.63;;;;;;;15.44;100.00;96489.22;5035836;28;20201;-71
2022/09/04 05:56:51;;;;;;;4.80;2.83;;;;;;;15.61;100.00;96494.97;5036401;28;20225;-71
2022/09/04 06:00:00;;;;;;;5.57;2.78;;;;;;;15.64;100.00;96502.53;5037116;28;20570;-71
2022/09/04 06:03:00;;;;;;;6.07;2.58;;;;;;;15.62;100.00;96502.75;5028060;28;20200;-71
2022/09/04 06:05:39;;;;;;;3.60;2.22;;;;;;;15.80;100.00;96505.63;5034489;28;20204;-71
2022/09/04 06:08:23;;;;;;;4.35;2.70;;;;;;;15.90;100.00;96503.41;5034191;28;20708;-71
2022/09/04 06:11:05;;;;;;;5.53;2.20;;;;;;;15.98;100.00;96506.66;5036426;28;20206;-71
2022/09/04 06:13:53;;;;;;;5.55;3.00;;;;;;;16.10;100.00;96509.53;5035266;28;20205;-71
2022/09/04 06:16:45;;;;;;;4.05;2.50;;;;;;;16.22;100.00;96514.03;5035974;28;20232;-71
2022/09/04 06:19:27;;;;;;;6.28;2.65;;;;;;;16.13;100.00;96519.78;5037031;28;20205;-71
2022/09/04 06:22:11;;;;;;;5.07;3.03;;;;;;;16.26;100.00;96525.13;5036091;28;20212;-71
2022/09/04 06:24:56;;;;;;;5.35;3.10;;;;;;;16.32;100.00;96525.13;5036694;28;20216;-71
2022/09/04 06:27:44;;;;;;;4.28;3.00;;;;;;;16.42;100.00;96530.88;5035529;28;20597;-71
2022/09/04 06:30:13;;;;;;;5.63;2.70;;;;;;;16.44;100.00;96534.13;5034790;28;20763;-70
2022/09/04 06:33:18;;;;;;;6.90;2.92;;;;;;;16.49;100.00;96537.78;5035497;28;20216;-70
2022/09/04 06:35:54;;;;;;;3.67;2.30;;;;;;;16.48;100.00;96543.31;5036058;28;20217;-72
2022/09/04 06:38:39;;;;;;;5.85;2.97;;;;;;;16.66;100.00;96544.34;5036035;28;20193;-71
2022/09/04 06:41:27;;;;;;;4.65;2.92;;;;;;;16.65;100.00;96539.22;5036513;28;20566;-70
2022/09/04 06:44:05;;;;;;;4.53;2.50;;;;;;;16.77;100.00;96545.53;5034352;28;20217;-71
2022/09/04 06:46:39;;;;;;;4.15;2.83;;;;;;;16.86;100.00;96545.09;5036596;28;20232;-70
2022/09/04 06:49:12;;;;;;;6.70;2.90;;;;;;;16.85;100.00;96545.31;5034750;28;20209;-71
2022/09/04 06:51:53;;;;;;;4.60;2.60;;;;;;;16.95;100.00;96543.06;5034584;28;20211;-71
2022/09/04 06:54:36;;;;;;;6.45;3.00;;;;;;;17.14;100.00;96549.16;5037284;28;20209;-70
2022/09/04 06:57:20;;;;;;;3.15;2.30;;;;;;;17.24;100.00;96554.88;5038119;28;20223;-71
2022/09/04 07:00:03;;;;;;;2.90;2.15;;;;;;;17.35;100.00;96556.88;5037917;28;20205;-71
2022/09/04 07:02:53;;;;;;;4.85;2.38;;;;;;;17.46;100.00;96561.53;5037484;28;20232;-71
2022/09/04 07:05:27;;;;;;;4.05;2.45;;;;;;;17.50;100.00;96567.28;5037634;28;20205;-71
2022/09/04 07:08:03;;;;;;;4.78;2.97;;;;;;;17.55;100.00;96562.94;5036737;28;20275;-72
2022/09/04 07:10:33;;;;;;;5.18;2.80;;;;;;;17.63;100.00;96560.06;5035499;28;20197;-71
2022/09/04 07:13:40;;;;;;;4.22;3.00;;;;;;;17.84;100.00;96570.38;5038157;28;20209;-70
2022/09/04 07:16:27;;;;;;;4.13;2.63;;;;;;;17.87;100.00;96561.94;5018007;28;20227;-69
2022/09/04 07:19:10;;;;;;;5.25;3.10;;;;;;;18.06;100.00;96569.03;5037022;28;20197;-69
2022/09/04 07:21:47;;;;;;;4.93;3.00;;;;;;;18.17;100.00;96574.53;5037719;28;20246;-69
2022/09/04 07:24:37;;;;;;;5.28;2.97;;;;;;;18.31;100.00;96583.28;5037076;28;20258;-69
2022/09/04 07:27:11;;;;;;;6.25;3.83;;;;;;;18.32;100.00;96576.88;5038033;28;20222;-69
2022/09/04 07:29:44;;;;;;;5.75;2.88;;;;;;;18.38;100.00;96577.66;5037513;28;20197;-69
2022/09/04 07:32:19;;;;;;;5.97;3.15;;;;;;;18.45;100.00;96575.75;5037850;28;20209;-69
2022/09/04 07:34:55;;;;;;;4.43;2.92;;;;;;;18.64;100.00;96576.63;5037416;28;20326;-69
2022/09/04 07:37:29;;;;;;;6.35;3.60;;;;;;;18.75;100.00;96581.25;5037382;28;20221;-69
2022/09/04 07:40:04;;;;;;;7.60;3.53;;;;;;;18.72;100.00;96595.03;5031424;28;20216;-69
2022/09/04 07:42:38;;;;;;;4.78;2.90;;;;;;;18.81;100.00;96594.53;5034886;28;20205;-70
2022/09/04 07:45:11;;;;;;;6.05;3.38;;;;;;;18.95;100.00;96594.22;5035998;28;20205;-69
2022/09/04 07:47:43;;;;;;;4.20;3.10;;;;;;;19.05;100.00;96599.03;5033702;28;20235;-69
2022/09/04 07:50:17;;;;;;;8.60;3.80;;;;;;;19.21;100.00;96601.19;5031890;28;20201;-69
2022/09/04 07:53:07;;;;;;;5.50;3.58;;;;;;;19.33;100.00;96600.22;5034784;28;20572;-69
2022/09/04 07:55:39;;;;;;;7.28;3.35;;;;;;;19.43;100.00;96605.06;5034656;28;20197;-69
2022/09/04 07:58:37;;;;;;;6.15;3.50;;;;;;;19.72;100.00;96600.59;5036231;28;20977;-69
2022/09/04 08:01:23;;;;;;;7.50;3.30;;;;;;;19.73;100.00;96606.78;5036802;28;20208;-69
2022/09/04 08:04:10;;;;;;;8.63;2.85;;;;;;;19.86;100.00;96607.41;5035787;28;20634;-69
2022/09/04 08:06:48;;;;;;;5.25;3.05;;;;;;;19.93;100.00;96618.06;5036393;28;20223;-69
2022/09/04 08:09:36;;;;;;;6.60;2.90;;;;;;;19.89;100.00;96620.31;5033890;28;20229;-69
2022/09/04 08:12:30;;;;;;;5.55;3.25;;;;;;;20.06;100.00;96607.19;5035309;28;20204;-69
2022/09/04 08:15:10;;;;;;;4.72;2.97;;;;;;;20.12;99.22;96617.78;5036237;28;20209;-69
2022/09/04 08:18:06;;;;;;;5.50;3.15;;;;;;;20.23;98.12;96625.06;5036334;28;21152;-69
2022/09/04 08:20:41;;;;;;;5.72;3.30;;;;;;;20.22;99.79;96626.09;5036750;28;20231;-70
2022/09/04 08:23:34;;;;;;;5.18;2.90;;;;;;;20.26;99.01;96636.13;5035790;28;20207;-68
2022/09/04 08:26:12;;;;;;;4.60;2.88;;;;;;;20.39;99.80;96624.41;5036574;28;20236;-69
2022/09/04 08:28:55;;;;;;;5.40;3.35;;;;;;;20.45;97.34;96629.66;5034977;28;20312;-69
2022/09/04 08:31:30;;;;;;;7.80;3.53;;;;;;;20.63;98.76;96631.47;5035295;28;20699;-69
2022/09/04 08:34:14;;;;;;;4.75;3.45;;;;;;;20.74;95.29;96626.16;5035203;28;20652;-70
2022/09/04 08:36:47;;;;;;;6.03;3.22;;;;;;;20.82;96.07;96625.81;5037514;28;20233;-69
2022/09/04 08:39:28;;;;;;;6.57;3.25;;;;;;;20.94;93.32;96635.50;5038330;28;20201;-69
2022/09/04 08:42:27;;;;;;;4.75;3.30;;;;;;;20.89;93.13;96638.06;5037963;28;20213;-70
2022/09/04 08:45:36;;;;;;;8.85;3.28;;;;;;;21.11;94.41;96636.47;5028852;28;20270;-69
2022/09/04 08:48:44;;;;;;;5.72;2.58;;;;;;;21.43;94.43;96640.41;5038245;28;20221;-70
2022/09/04 08:51:45;;;;;;;5.00;2.78;;;;;;;21.42;90.06;96632.63;5015498;28;20619;-69
2022/09/04 08:55:00;;;;;;;4.97;3.35;;;;;;;21.35;91.96;96631.94;5035223;28;20289;-69
2022/09/04 08:57:52;;;;;;;5.03;3.03;;;;;;;21.50;92.59;96641.97;5034919;28;20221;-69
2022/09/04 09:00:20;;;;;;;4.18;2.70;;;;;;;21.62;92.78;96633.91;5034750;28;20238;-70
2022/09/04 09:03:37;;;;;;;4.15;2.47;;;;;;;21.85;88.56;96637.34;5035071;28;20340;-70
2022/09/04 09:06:48;;;;;;;4.22;1.98;;;;;;;21.98;87.79;96630.91;5035246;28;20224;-69
2022/09/04 09:09:47;;;;;;;4.68;2.60;;;;;;;22.04;87.37;96633.47;5036263;28;20224;-69
2022/09/04 09:12:49;;;;;;;3.53;2.60;;;;;;;21.92;86.32;96624.63;5035731;28;20201;-69
2022/09/04 09:15:39;;;;;;;3.35;2.40;;;;;;;22.17;86.33;96631.31;5034605;28;20201;-69
2022/09/04 09:18:27;;;;;;;5.40;2.72;;;;;;;22.03;85.24;96625.66;5035058;28;20194;-69
2022/09/04 09:21:05;;;;;;;3.55;2.15;;;;;;;22.16;86.04;96624.31;5032010;28;20205;-70
2022/09/04 09:23:40;;;;;;;3.05;1.98;;;;;;;22.45;85.12;96625.97;5034351;28;20200;-69
2022/09/04 09:26:25;;;;;;;2.30;1.80;;;;;;;22.57;81.35;96629.41;5037334;28;20220;-69
2022/09/04 09:29:44;;;;;;;3.60;1.73;;;;;;;22.62;79.91;96631.38;5034753;28;20231;-70
2022/09/04 09:32:42;;;;;;;2.90;1.90;;;;;;;22.93;81.97;96634.34;4971101;28;20210;-68
2022/09/04 09:35:57;;;;;;;3.38;2.03;;;;;;;22.87;81.32;96624.56;4972446;28;20207;-69
2022/09/04 09:38:42;;;;;;;3.25;1.40;;;;;;;23.20;81.95;96624.59;5033763;28;20200;-70
2022/09/04 09:41:39;;;;;;;3.83;1.63;;;;;;;22.95;78.66;96624.16;5035523;28;20227;-69
2022/09/04 09:44:28;;;;;;;3.50;1.80;;;;;;;23.08;77.69;96623.88;5005329;28;20544;-69
2022/09/04 09:47:09;;;;;;;3.75;1.42;;;;;;;23.27;76.89;96625.22;5033908;28;20228;-69
2022/09/04 09:50:13;;;;;;;4.72;1.73;;;;;;;23.46;76.18;96619.34;5033159;28;20228;-68
2022/09/04 09:53:21;;;;;;;2.35;1.30;;;;;;;23.72;74.66;96618.66;4999740;28;20201;-69
2022/09/04 09:56:17;;;;;;;2.03;1.48;;;;;;;23.90;73.51;96615.66;5001399;28;20226;-69
2022/09/04 09:59:05;;;;;;;3.40;1.23;;;;;;;23.87;75.71;96613.47;5028299;28;20212;-70
2022/09/04 10:01:50;;;;;;;6.03;1.33;;;;;;;23.90;77.48;96605.69;5032849;28;20216;-69
2022/09/04 10:04:36;;;;;;;2.60;1.60;;;;;;;24.04;69.91;96607.78;5033719;28;20201;-70
2022/09/04 10:07:41;;;;;;;2.00;1.42;;;;;;;24.06;71.39;96605.63;5037523;28;20620;-70
2022/09/04 10:10:26;;;;;;;3.45;1.20;;;;;;;24.28;71.00;96605.63;4990134;28;20224;-70
2022/09/04 10:13:25;;;;;;;1.88;1.27;;;;;;;24.23;71.67;96600.19;5034872;28;20213;-70
2022/09/04 10:16:19;;;;;;;2.38;1.08;;;;;;;24.51;69.64;96602.66;5036968;28;20478;-70
2022/09/04 10:19:11;;;;;;;1.45;1.25;;;;;;;23.95;66.87;96608.47;5034929;28;20193;-70
2022/09/04 10:22:28;;;;;;;5.53;1.38;;;;;;;23.91;67.05;96604.66;5036126;28;20255;-70
2022/09/04 10:25:35;;;;;;;2.75;1.58;;;;;;;24.30;72.16;96606.16;5035790;28;20205;-70
2022/09/04 10:28:39;;;;;;;5.07;1.30;;;;;;;23.49;73.81;96608.88;4986928;28;20224;-70
2022/09/04 10:31:43;;;;;;;1.88;1.30;;;;;;;23.51;71.11;96617.53;5034808;28;20254;-70
2022/09/04 10:34:29;;;;;;;1.20;1.05;;;;;;;23.67;72.82;96616.66;5033237;28;20262;-70
2022/09/04 10:37:06;;;;;;;2.60;1.30;;;;;;;23.95;69.63;96612.00;5034680;28;20232;-70
2022/09/04 10:42:39;;;;;;;2.45;1.30;;;;;;;24.40;63.59;96607.16;5033209;28;20235;-70
2022/09/04 10:45:16;;;;;;;3.10;1.02;;;;;;;24.16;61.23;96616.53;5034357;28;20201;-70
2022/09/04 10:48:03;;;;;;;1.58;1.23;;;;;;;24.62;61.05;96611.41;5032418;28;20263;-70
2022/09/04 10:50:45;;;;;;;3.70;1.33;;;;;;;24.83;62.95;96607.81;5032431;28;20205;-70
2022/09/04 10:53:28;;;;;;;1.65;1.20;;;;;;;25.04;62.81;96612.31;5032633;28;20734;-70
2022/09/04 10:56:20;;;;;;;1.88;1.25;;;;;;;24.93;60.14;96607.91;5031933;28;20240;-71
2022/09/04 10:59:22;;;;;;;1.30;1.15;;;;;;;25.29;62.78;96607.97;5033405;28;20205;-72
2022/09/04 11:02:31;;;;;;;2.45;1.10;;;;;;;25.55;63.21;96611.66;5034224;28;20204;-69
2022/09/04 11:05:25;;;;;;;1.85;1.02;;;;;;;25.51;60.53;96613.22;5034033;28;20583;-68
2022/09/04 11:08:23;;;;;;;2.08;1.38;;;;;;;25.49;58.14;96612.69;5035952;28;20228;-68
2022/09/04 11:11:01;;;;;;;1.70;1.20;;;;;;;25.21;59.88;96604.94;5034366;28;20205;-70
2022/09/04 11:14:05;;;;;;;1.50;1.00;;;;;;;25.48;60.61;96611.03;5030978;28;20209;-69
2022/09/04 11:17:10;;;;;;;1.58;1.15;;;;;;;25.50;59.36;96608.91;5009918;28;20314;-69
2022/09/04 11:20:18;;;;;;;1.35;1.10;;;;;;;26.09;59.99;96608.44;5033437;28;20201;-69
2022/09/04 11:23:35;;;;;;;3.20;1.30;;;;;;;26.64;58.11;96604.00;5031420;28;20201;-71
2022/09/04 11:26:50;;;;;;;1.45;0.93;;;;;;;26.64;58.08;96596.72;4971084;28;20254;-70
2022/09/04 11:29:40;;;;;;;1.52;0.88;;;;;;;26.66;52.93;96593.75;4953394;28;20266;-70
2022/09/04 11:32:38;;;;;;;1.45;1.20;;;;;;;26.60;57.46;96598.34;5033479;28;20351;-70
2022/09/04 11:35:44;;;;;;;5.35;1.30;;;;;;;26.48;57.59;96588.84;5033849;28;20296;-70
2022/09/04 11:38:17;;;;;;;3.58;1.00;;;;;;;26.54;55.01;96593.19;5016567;28;20197;-71
2022/09/04 11:41:17;;;;;;;1.48;1.10;;;;;;;26.58;52.63;96586.19;5036709;28;20247;-71
2022/09/04 11:44:15;;;;;;;3.65;1.05;;;;;;;26.12;56.56;96580.88;5037168;28;20220;-71
2022/09/04 11:47:10;;;;;;;1.10;0.90;;;;;;;26.35;56.27;96583.13;5037286;28;20228;-71
2022/09/04 11:49:51;;;;;;;1.10;0.95;;;;;;;26.51;53.61;96578.31;5038094;28;20220;-70
2022/09/04 11:52:45;;;;;;;1.58;1.27;;;;;;;26.64;56.84;96579.66;5034783;28;20209;-70
2022/09/04 11:55:45;;;;;;;2.28;1.00;;;;;;;26.41;54.28;96585.56;5034553;28;20486;-70
2022/09/04 11:58:30;;;;;;;2.00;1.10;;;;;;;26.24;56.17;96582.25;5012101;28;20217;-70
2022/09/04 12:01:08;;;;;;;1.63;1.25;;;;;;;26.36;60.67;96582.06;5038026;28;20299;-70
2022/09/04 12:04:08;;;;;;;1.25;0.80;;;;;;;26.45;52.43;96581.25;5037760;28;20197;-70
2022/09/04 12:06:49;;;;;;;2.17;1.10;;;;;;;26.39;52.50;96579.66;5038566;28;20227;-70
2022/09/04 12:09:52;;;;;;;2.28;0.80;;;;;;;26.26;51.26;96588.22;5038404;28;20221;-70
2022/09/04 12:12:42;;;;;;;2.50;0.98;;;;;;;25.82;51.95;96589.66;5037878;28;20208;-70
2022/09/04 12:15:49;;;;;;;1.10;1.00;;;;;;;25.56;52.44;96597.03;5036966;28;21282;-72
2022/09/04 12:18:50;;;;;;;2.08;1.10;;;;;;;25.15;57.45;96592.47;5037937;28;20216;-72
2022/09/04 12:21:39;;;;;;;1.92;1.20;;;;;;;25.29;56.84;96596.34;5038590;28;20266;-72
2022/09/04 12:24:31;;;;;;;1.77;1.10;;;;;;;25.08;57.49;96591.09;5034660;28;20212;-72
2022/09/04 12:27:20;;;;;;;2.15;1.20;;;;;;;25.44;61.19;96596.44;5036057;28;20225;-72
2022/09/04 12:30:04;;;;;;;3.50;1.25;;;;;;;25.47;55.50;96598.63;5035661;28;20728;-72
2022/09/04 12:33:11;;;;;;;1.30;0.88;;;;;;;25.71;53.85;96602.56;5035843;28;20232;-73
2022/09/04 12:36:05;;;;;;;2.83;0.93;;;;;;;25.77;52.56;96588.03;5037756;28;20280;-72
2022/09/04 12:39:14;;;;;;;2.70;1.40;;;;;;;25.56;55.36;96592.47;5038472;28;20222;-72
2022/09/04 12:41:56;;;;;;;1.75;1.30;;;;;;;25.54;53.10;96591.91;5031466;28;20219;-72
2022/09/04 12:44:35;;;;;;;2.63;1.27;;;;;;;25.34;59.54;96589.13;5036794;28;20583;-72
2022/09/04 12:47:15;;;;;;;2.05;1.00;;;;;;;25.30;56.53;96597.97;5037273;28;20220;-72
2022/09/04 12:49:58;;;;;;;2.67;1.20;;;;;;;25.59;58.15;96600.03;5035856;28;20569;-72
2022/09/04 12:52:40;;;;;;;3.00;1.20;;;;;;;25.37;56.91;96598.56;5033848;28;20765;-72
2022/09/04 12:55:16;;;;;;;3.05;1.10;;;;;;;25.71;55.52;96595.28;5037142;28;20197;-72